Aigaion — SYMC — position and weather

sailwx.info

Track history (hours):
 
Tides and Currents Weather Stations Pressure Air Temp Water Temp Dewpoint Dewpoint Depression Visibility Wind Speed Wind Dir Waves Ship Positions

Aigaion

Last reported at 2015-Aug-12 12:28 UTC. Time now 2015-Aug-28 14:45 UTC.
Position S 17°04' E 116°37'.
Warning: this ship's position is 16 days out of date.

Length 289 m; draft 17 m.

Type: Cargo ship. MMSI: 240174000.

Date/timePositionNaut miles runAvg speedWind from/ knotsBaromVisibWave heightAir tempDewpointWater temp
2015-Aug-12 12:28S 17°04' E 116°37'184 9.5
2015-Aug-11 17:04S 20°08' E 116°47'6 9.8
2015-Aug-11 16:30S 20°13' E 116°46'1010.2
2015-Aug-11 15:32S 20°23' E 116°43'1010.0
2015-Aug-11 14:33S 20°33' E 116°42'5 0.1
2015-Aug-09 11:26S 20°38' E 116°43'5 5.2
2015-Aug-09 10:33S 20°34' E 116°42'1111.3
2015-Aug-09 09:32S 20°22' E 116°40'3 2.1
2015-Aug-09 08:16S 20°21' E 116°38'0 0.0
2015-Aug-09 05:22S 20°21' E 116°38'0 0.0
2015-Aug-08 11:10S 20°21' E 116°38'1 0.3
2015-Aug-08 07:31S 20°21' E 116°39'14 6.2
2015-Aug-08 05:19S 20°09' E 116°45'6 8.0
2015-Aug-08 04:31S 20°03' E 116°49'38 7.4
2015-Aug-07 23:25S 19°25' E 116°52'22 7.5
2015-Aug-07 20:33S 19°04' E 116°51'31 7.8
2015-Aug-07 16:33S 18°33' E 116°48'8 8.1
2015-Aug-07 15:33S 18°25' E 116°47'16 8.2
2015-Aug-07 13:33S 18°09' E 116°45'9 8.4
2015-Aug-07 12:27S 17°59' E 116°44'16 7.9
2015-Aug-07 10:28S 17°44' E 116°42'9 9.6
2015-Aug-07 09:29S 17°34' E 116°41'  
Track history (hours):
 
Tides and Currents Weather Stations Pressure Air Temp Water Temp Dewpoint Dewpoint Depression Visibility Wind Speed Wind Dir Waves Ship Positions

Aigaion

Last reported at 2015-Aug-12 12:28 UTC. Time now 2015-Aug-28 14:45 UTC.
Position S 17°04' E 116°37'.
Warning: this ship's position is 16 days out of date.

Length 289 m; draft 17 m.

Type: Cargo ship. MMSI: 240174000.

Date/timePositionNaut miles runAvg speedWind from/ knotsBaromVisibWave heightAir tempDewpointWater temp
2015-Aug-12 12:28S 17°04' E 116°37'184 9.5
2015-Aug-11 17:04S 20°08' E 116°47'6 9.8
2015-Aug-11 16:30S 20°13' E 116°46'1010.2
2015-Aug-11 15:32S 20°23' E 116°43'1010.0
2015-Aug-11 14:33S 20°33' E 116°42'5 0.1
2015-Aug-09 11:26S 20°38' E 116°43'5 5.2
2015-Aug-09 10:33S 20°34' E 116°42'1111.3
2015-Aug-09 09:32S 20°22' E 116°40'3 2.1
2015-Aug-09 08:16S 20°21' E 116°38'0 0.0
2015-Aug-09 05:22S 20°21' E 116°38'0 0.0
2015-Aug-08 11:10S 20°21' E 116°38'1 0.3
2015-Aug-08 07:31S 20°21' E 116°39'14 6.2
2015-Aug-08 05:19S 20°09' E 116°45'6 8.0
2015-Aug-08 04:31S 20°03' E 116°49'38 7.4
2015-Aug-07 23:25S 19°25' E 116°52'22 7.5
2015-Aug-07 20:33S 19°04' E 116°51'31 7.8
2015-Aug-07 16:33S 18°33' E 116°48'8 8.1
2015-Aug-07 15:33S 18°25' E 116°47'16 8.2
2015-Aug-07 13:33S 18°09' E 116°45'9 8.4
2015-Aug-07 12:27S 17°59' E 116°44'16 7.9
2015-Aug-07 10:28S 17°44' E 116°42'9 9.6
2015-Aug-07 09:29S 17°34' E 116°41'  

Dump ship's entire track history